sensor_id;sensor_type;location;lat;lon;timestamp;pressure;altitude;pressure_sealevel;temperature;humidity
54872;BME280;43914;57.680;11.982;2023-12-22T00:00:02;96064.98;;;-1.48;100.00
54872;BME280;43914;57.680;11.982;2023-12-22T00:02:28;96059.23;;;-1.48;100.00
54872;BME280;43914;57.680;11.982;2023-12-22T00:04:54;96065.52;;;-1.47;100.00
54872;BME280;43914;57.680;11.982;2023-12-22T00:07:19;96072.91;;;-1.47;100.00
54872;BME280;43914;57.680;11.982;2023-12-22T00:09:45;96076.59;;;-1.47;100.00
54872;BME280;43914;57.680;11.982;2023-12-22T00:12:11;96077.53;;;-1.47;100.00
54872;BME280;43914;57.680;11.982;2023-12-22T00:14:36;96076.81;;;-1.46;100.00
54872;BME280;43914;57.680;11.982;2023-12-22T00:17:03;96078.33;;;-1.47;100.00
54872;BME280;43914;57.680;11.982;2023-12-22T00:19:29;96082.00;;;-1.47;100.00
54872;BME280;43914;57.680;11.982;2023-12-22T00:21:54;96089.13;;;-1.49;100.00
54872;BME280;43914;57.680;11.982;2023-12-22T00:24:20;96084.00;;;-1.56;100.00
54872;BME280;43914;57.680;11.982;2023-12-22T00:26:46;96099.56;;;-1.52;100.00
54872;BME280;43914;57.680;11.982;2023-12-22T00:29:11;96100.28;;;-1.55;100.00
54872;BME280;43914;57.680;11.982;2023-12-22T00:31:37;96102.05;;;-1.57;100.00
54872;BME280;43914;57.680;11.982;2023-12-22T00:34:02;96104.20;;;-1.57;100.00
54872;BME280;43914;57.680;11.982;2023-12-22T00:36:28;96097.59;;;-1.57;100.00
54872;BME280;43914;57.680;11.982;2023-12-22T00:38:53;96098.70;;;-1.59;100.00
54872;BME280;43914;57.680;11.982;2023-12-22T00:41:19;96111.23;;;-1.58;100.00
54872;BME280;43914;57.680;11.982;2023-12-22T00:43:47;96113.59;;;-1.57;100.00
54872;BME280;43914;57.680;11.982;2023-12-22T00:46:13;96116.73;;;-1.58;100.00
54872;BME280;43914;57.680;11.982;2023-12-22T00:48:39;96111.64;;;-1.57;100.00
54872;BME280;43914;57.680;11.982;2023-12-22T00:51:06;96114.72;;;-1.57;100.00
54872;BME280;43914;57.680;11.982;2023-12-22T00:53:33;96124.21;;;-1.55;100.00
54872;BME280;43914;57.680;11.982;2023-12-22T00:55:59;96124.09;;;-1.54;100.00
54872;BME280;43914;57.680;11.982;2023-12-22T00:58:25;96124.66;;;-1.55;100.00
54872;BME280;43914;57.680;11.982;2023-12-22T01:00:51;96134.44;;;-1.52;100.00
54872;BME280;43914;57.680;11.982;2023-12-22T01:03:17;96137.45;;;-1.51;100.00
54872;BME280;43914;57.680;11.982;2023-12-22T01:05:42;96132.84;;;-1.51;100.00
54872;BME280;43914;57.680;11.982;2023-12-22T01:08:08;96137.11;;;-1.50;100.00
54872;BME280;43914;57.680;11.982;2023-12-22T01:10:33;96140.92;;;-1.50;100.00
54872;BME280;43914;57.680;11.982;2023-12-22T01:12:59;96145.16;;;-1.51;100.00
54872;BME280;43914;57.680;11.982;2023-12-22T01:15:25;96147.01;;;-1.50;100.00
54872;BME280;43914;57.680;11.982;2023-12-22T01:17:51;96149.81;;;-1.50;100.00
54872;BME280;43914;57.680;11.982;2023-12-22T01:20:16;96155.07;;;-1.48;100.00
54872;BME280;43914;57.680;11.982;2023-12-22T01:22:42;96162.96;;;-1.47;100.00
54872;BME280;43914;57.680;11.982;2023-12-22T01:25:07;96174.69;;;-1.45;100.00
54872;BME280;43914;57.680;11.982;2023-12-22T01:27:33;96172.40;;;-1.44;100.00
54872;BME280;43914;57.680;11.982;2023-12-22T01:29:58;96183.24;;;-1.42;100.00
54872;BME280;43914;57.680;11.982;2023-12-22T01:32:24;96179.75;;;-1.42;100.00
54872;BME280;43914;57.680;11.982;2023-12-22T01:34:49;96183.31;;;-1.41;100.00
54872;BME280;43914;57.680;11.982;2023-12-22T01:37:15;96189.03;;;-1.42;100.00
54872;BME280;43914;57.680;11.982;2023-12-22T01:39:41;96182.82;;;-1.41;100.00
54872;BME280;43914;57.680;11.982;2023-12-22T01:42:06;96189.79;;;-1.40;100.00
54872;BME280;43914;57.680;11.982;2023-12-22T01:44:32;96191.54;;;-1.40;100.00
54872;BME280;43914;57.680;11.982;2023-12-22T01:46:57;96190.02;;;-1.39;100.00
54872;BME280;43914;57.680;11.982;2023-12-22T01:49:24;96195.70;;;-1.39;100.00
54872;BME280;43914;57.680;11.982;2023-12-22T01:51:51;96197.95;;;-1.38;100.00
54872;BME280;43914;57.680;11.982;2023-12-22T01:54:18;96206.04;;;-1.37;100.00
54872;BME280;43914;57.680;11.982;2023-12-22T01:56:47;96204.37;;;-1.36;100.00
54872;BME280;43914;57.680;11.982;2023-12-22T01:59:13;96208.07;;;-1.38;100.00
54872;BME280;43914;57.680;11.982;2023-12-22T02:01:39;96210.43;;;-1.38;100.00
54872;BME280;43914;57.680;11.982;2023-12-22T02:04:06;96214.27;;;-1.38;100.00
54872;BME280;43914;57.680;11.982;2023-12-22T02:06:32;96214.21;;;-1.39;100.00
54872;BME280;43914;57.680;11.982;2023-12-22T02:09:02;96219.99;;;-1.39;100.00
54872;BME280;43914;57.680;11.982;2023-12-22T02:11:29;96227.02;;;-1.39;100.00
54872;BME280;43914;57.680;11.982;2023-12-22T02:13:55;96225.11;;;-1.40;100.00
54872;BME280;43914;57.680;11.982;2023-12-22T02:16:29;96227.33;;;-1.44;100.00
54872;BME280;43914;57.680;11.982;2023-12-22T02:18:59;96230.05;;;-1.44;100.00
54872;BME280;43914;57.680;11.982;2023-12-22T02:21:26;96231.77;;;-1.45;100.00
54872;BME280;43914;57.680;11.982;2023-12-22T02:23:52;96230.33;;;-1.48;100.00
54872;BME280;43914;57.680;11.982;2023-12-22T02:26:28;96233.53;;;-1.48;100.00
54872;BME280;43914;57.680;11.982;2023-12-22T02:28:57;96237.84;;;-1.49;100.00
54872;BME280;43914;57.680;11.982;2023-12-22T02:31:33;96244.04;;;-1.49;100.00
54872;BME280;43914;57.680;11.982;2023-12-22T02:34:05;96244.98;;;-1.51;100.00
54872;BME280;43914;57.680;11.982;2023-12-22T02:36:36;96243.09;;;-1.55;100.00
54872;BME280;43914;57.680;11.982;2023-12-22T02:39:02;96244.24;;;-1.56;100.00
54872;BME280;43914;57.680;11.982;2023-12-22T02:41:29;96247.30;;;-1.58;100.00
54872;BME280;43914;57.680;11.982;2023-12-22T02:43:54;96253.39;;;-1.61;100.00
54872;BME280;43914;57.680;11.982;2023-12-22T02:46:20;96244.98;;;-1.62;100.00
54872;BME280;43914;57.680;11.982;2023-12-22T02:48:46;96250.64;;;-1.64;100.00
54872;BME280;43914;57.680;11.982;2023-12-22T02:51:11;96254.65;;;-1.64;100.00
54872;BME280;43914;57.680;11.982;2023-12-22T02:53:37;96258.81;;;-1.64;100.00
54872;BME280;43914;57.680;11.982;2023-12-22T02:56:02;96268.52;;;-1.63;100.00
54872;BME280;43914;57.680;11.982;2023-12-22T02:58:28;96272.38;;;-1.65;100.00
54872;BME280;43914;57.680;11.982;2023-12-22T03:00:53;96272.10;;;-1.64;100.00
54872;BME280;43914;57.680;11.982;2023-12-22T03:03:19;96267.36;;;-1.64;100.00
54872;BME280;43914;57.680;11.982;2023-12-22T03:05:44;96281.64;;;-1.63;100.00
54872;BME280;43914;57.680;11.982;2023-12-22T03:08:10;96278.36;;;-1.62;100.00
54872;BME280;43914;57.680;11.982;2023-12-22T03:10:35;96286.19;;;-1.60;100.00
54872;BME280;43914;57.680;11.982;2023-12-22T03:13:01;96284.59;;;-1.62;100.00
54872;BME280;43914;57.680;11.982;2023-12-22T03:15:27;96292.11;;;-1.61;100.00
54872;BME280;43914;57.680;11.982;2023-12-22T03:17:54;96302.29;;;-1.61;100.00
54872;BME280;43914;57.680;11.982;2023-12-22T03:20:19;96307.76;;;-1.61;100.00
54872;BME280;43914;57.680;11.982;2023-12-22T03:22:45;96304.76;;;-1.61;100.00
54872;BME280;43914;57.680;11.982;2023-12-22T03:25:10;96306.98;;;-1.61;100.00
54872;BME280;43914;57.680;11.982;2023-12-22T03:27:36;96313.73;;;-1.60;100.00
54872;BME280;43914;57.680;11.982;2023-12-22T03:30:02;96321.65;;;-1.62;100.00
54872;BME280;43914;57.680;11.982;2023-12-22T03:32:29;96328.44;;;-1.60;100.00
54872;BME280;43914;57.680;11.982;2023-12-22T03:34:54;96335.37;;;-1.61;100.00
54872;BME280;43914;57.680;11.982;2023-12-22T03:37:20;96338.05;;;-1.61;100.00
54872;BME280;43914;57.680;11.982;2023-12-22T03:39:45;96341.85;;;-1.61;100.00
54872;BME280;43914;57.680;11.982;2023-12-22T03:42:11;96350.06;;;-1.61;100.00
54872;BME280;43914;57.680;11.982;2023-12-22T03:44:36;96352.77;;;-1.60;100.00
54872;BME280;43914;57.680;11.982;2023-12-22T03:47:02;96357.35;;;-1.60;100.00
54872;BME280;43914;57.680;11.982;2023-12-22T03:49:27;96359.26;;;-1.59;100.00
54872;BME280;43914;57.680;11.982;2023-12-22T03:51:53;96360.84;;;-1.60;100.00
54872;BME280;43914;57.680;11.982;2023-12-22T03:54:18;96362.82;;;-1.60;100.00
54872;BME280;43914;57.680;11.982;2023-12-22T03:56:44;96373.79;;;-1.59;100.00
54872;BME280;43914;57.680;11.982;2023-12-22T03:59:09;96382.63;;;-1.61;100.00
54872;BME280;43914;57.680;11.982;2023-12-22T04:01:35;96381.73;;;-1.59;100.00
54872;BME280;43914;57.680;11.982;2023-12-22T04:04:04;96388.38;;;-1.59;100.00
54872;BME280;43914;57.680;11.982;2023-12-22T04:06:32;96389.33;;;-1.64;100.00
54872;BME280;43914;57.680;11.982;2023-12-22T04:08:58;96404.50;;;-1.61;100.00
54872;BME280;43914;57.680;11.982;2023-12-22T04:11:24;96415.51;;;-1.61;100.00
54872;BME280;43914;57.680;11.982;2023-12-22T04:13:49;96422.61;;;-1.62;100.00
54872;BME280;43914;57.680;11.982;2023-12-22T04:16:15;96426.86;;;-1.61;100.00
54872;BME280;43914;57.680;11.982;2023-12-22T04:18:43;96432.55;;;-1.63;100.00
54872;BME280;43914;57.680;11.982;2023-12-22T04:21:09;96440.60;;;-1.63;100.00
54872;BME280;43914;57.680;11.982;2023-12-22T04:23:35;96452.28;;;-1.63;100.00
54872;BME280;43914;57.680;11.982;2023-12-22T04:26:04;96449.33;;;-1.63;100.00
54872;BME280;43914;57.680;11.982;2023-12-22T04:28:30;96461.49;;;-1.63;100.00
54872;BME280;43914;57.680;11.982;2023-12-22T04:30:55;96469.57;;;-1.63;100.00
54872;BME280;43914;57.680;11.982;2023-12-22T04:33:21;96481.31;;;-1.64;100.00
54872;BME280;43914;57.680;11.982;2023-12-22T04:35:47;96484.93;;;-1.66;100.00
54872;BME280;43914;57.680;11.982;2023-12-22T04:38:12;96493.23;;;-1.66;100.00
54872;BME280;43914;57.680;11.982;2023-12-22T04:40:38;96490.66;;;-1.68;100.00
54872;BME280;43914;57.680;11.982;2023-12-22T04:43:04;96504.75;;;-1.68;100.00
54872;BME280;43914;57.680;11.982;2023-12-22T04:45:29;96498.57;;;-1.69;100.00
54872;BME280;43914;57.680;11.982;2023-12-22T04:47:55;96504.09;;;-1.70;100.00
54872;BME280;43914;57.680;11.982;2023-12-22T04:50:20;96512.71;;;-1.71;100.00
54872;BME280;43914;57.680;11.982;2023-12-22T04:52:46;96523.76;;;-1.71;100.00
54872;BME280;43914;57.680;11.982;2023-12-22T04:55:11;96529.60;;;-1.70;100.00
54872;BME280;43914;57.680;11.982;2023-12-22T04:57:37;96535.59;;;-1.70;100.00
54872;BME280;43914;57.680;11.982;2023-12-22T05:00:06;96535.18;;;-1.71;100.00
54872;BME280;43914;57.680;11.982;2023-12-22T05:02:32;96544.33;;;-1.70;100.00
54872;BME280;43914;57.680;11.982;2023-12-22T05:04:57;96545.30;;;-1.70;100.00
54872;BME280;43914;57.680;11.982;2023-12-22T05:07:23;96554.05;;;-1.69;100.00
54872;BME280;43914;57.680;11.982;2023-12-22T05:09:48;96557.42;;;-1.71;100.00
54872;BME280;43914;57.680;11.982;2023-12-22T05:12:14;96564.02;;;-1.69;100.00
54872;BME280;43914;57.680;11.982;2023-12-22T05:14:39;96564.45;;;-1.70;100.00
54872;BME280;43914;57.680;11.982;2023-12-22T05:17:05;96564.51;;;-1.70;100.00
54872;BME280;43914;57.680;11.982;2023-12-22T05:19:30;96575.19;;;-1.69;100.00
54872;BME280;43914;57.680;11.982;2023-12-22T05:21:56;96584.61;;;-1.68;100.00
54872;BME280;43914;57.680;11.982;2023-12-22T05:24:22;96591.54;;;-1.68;100.00
54872;BME280;43914;57.680;11.982;2023-12-22T05:26:48;96598.10;;;-1.67;100.00
54872;BME280;43914;57.680;11.982;2023-12-22T05:29:13;96600.75;;;-1.66;100.00
54872;BME280;43914;57.680;11.982;2023-12-22T05:31:39;96621.98;;;-1.66;100.00
54872;BME280;43914;57.680;11.982;2023-12-22T05:34:05;96622.72;;;-1.66;100.00
54872;BME280;43914;57.680;11.982;2023-12-22T05:36:31;96632.55;;;-1.66;100.00
54872;BME280;43914;57.680;11.982;2023-12-22T05:38:57;96634.64;;;-1.67;100.00
54872;BME280;43914;57.680;11.982;2023-12-22T05:41:22;96644.98;;;-1.66;100.00
54872;BME280;43914;57.680;11.982;2023-12-22T05:43:48;96649.94;;;-1.66;100.00
54872;BME280;43914;57.680;11.982;2023-12-22T05:46:14;96654.34;;;-1.65;100.00
54872;BME280;43914;57.680;11.982;2023-12-22T05:48:40;96658.11;;;-1.66;100.00
54872;BME280;43914;57.680;11.982;2023-12-22T05:51:06;96671.42;;;-1.64;100.00
54872;BME280;43914;57.680;11.982;2023-12-22T05:53:42;96675.23;;;-1.64;100.00
54872;BME280;43914;57.680;11.982;2023-12-22T05:56:20;96680.83;;;-1.64;100.00
54872;BME280;43914;57.680;11.982;2023-12-22T05:58:53;96690.17;;;-1.63;100.00
54872;BME280;43914;57.680;11.982;2023-12-22T06:01:20;96701.80;;;-1.63;100.00
54872;BME280;43914;57.680;11.982;2023-12-22T06:03:46;96701.29;;;-1.66;100.00
54872;BME280;43914;57.680;11.982;2023-12-22T06:06:12;96709.36;;;-1.62;100.00
54872;BME280;43914;57.680;11.982;2023-12-22T06:08:38;96706.42;;;-1.62;100.00
54872;BME280;43914;57.680;11.982;2023-12-22T06:11:04;96716.02;;;-1.62;100.00
54872;BME280;43914;57.680;11.982;2023-12-22T06:13:31;96724.31;;;-1.62;100.00
54872;BME280;43914;57.680;11.982;2023-12-22T06:15:57;96736.70;;;-1.62;100.00
54872;BME280;43914;57.680;11.982;2023-12-22T06:18:22;96743.89;;;-1.63;100.00
54872;BME280;43914;57.680;11.982;2023-12-22T06:20:48;96750.29;;;-1.63;100.00
54872;BME280;43914;57.680;11.982;2023-12-22T06:23:13;96754.00;;;-1.62;100.00
54872;BME280;43914;57.680;11.982;2023-12-22T06:25:39;96758.02;;;-1.65;100.00
54872;BME280;43914;57.680;11.982;2023-12-22T06:28:04;96763.33;;;-1.61;100.00
54872;BME280;43914;57.680;11.982;2023-12-22T06:30:33;96774.83;;;-1.61;100.00
54872;BME280;43914;57.680;11.982;2023-12-22T06:32:58;96782.73;;;-1.59;100.00
54872;BME280;43914;57.680;11.982;2023-12-22T06:35:25;96783.37;;;-1.59;100.00
54872;BME280;43914;57.680;11.982;2023-12-22T06:37:51;96792.23;;;-1.58;100.00
54872;BME280;43914;57.680;11.982;2023-12-22T06:40:17;96799.90;;;-1.57;100.00
54872;BME280;43914;57.680;11.982;2023-12-22T06:42:46;96806.54;;;-1.56;100.00
54872;BME280;43914;57.680;11.982;2023-12-22T06:45:12;96812.57;;;-1.56;100.00
54872;BME280;43914;57.680;11.982;2023-12-22T06:47:37;96812.33;;;-1.63;100.00
54872;BME280;43914;57.680;11.982;2023-12-22T06:50:03;96834.80;;;-1.56;100.00
54872;BME280;43914;57.680;11.982;2023-12-22T06:52:29;96847.41;;;-1.54;100.00
54872;BME280;43914;57.680;11.982;2023-12-22T06:54:57;96850.57;;;-1.54;100.00
54872;BME280;43914;57.680;11.982;2023-12-22T06:57:22;96857.13;;;-1.51;100.00
54872;BME280;43914;57.680;11.982;2023-12-22T06:59:48;96865.16;;;-1.52;100.00
54872;BME280;43914;57.680;11.982;2023-12-22T07:02:15;96869.09;;;-1.54;100.00
54872;BME280;43914;57.680;11.982;2023-12-22T07:05:29;96866.49;;;-1.58;100.00
54872;BME280;43914;57.680;11.982;2023-12-22T07:07:50;96881.61;;;-1.55;100.00
54872;BME280;43914;57.680;11.982;2023-12-22T07:10:16;96891.84;;;-1.56;100.00
54872;BME280;43914;57.680;11.982;2023-12-22T07:12:41;96899.45;;;-1.58;100.00
54872;BME280;43914;57.680;11.982;2023-12-22T07:15:07;96909.47;;;-1.58;100.00
54872;BME280;43914;57.680;11.982;2023-12-22T07:17:34;96917.09;;;-1.57;100.00
54872;BME280;43914;57.680;11.982;2023-12-22T07:20:00;96928.92;;;-1.57;100.00
54872;BME280;43914;57.680;11.982;2023-12-22T07:22:29;96929.36;;;-1.57;100.00
54872;BME280;43914;57.680;11.982;2023-12-22T07:24:55;96938.08;;;-1.56;100.00
54872;BME280;43914;57.680;11.982;2023-12-22T07:27:21;96935.64;;;-1.56;100.00
54872;BME280;43914;57.680;11.982;2023-12-22T07:29:46;96939.54;;;-1.57;100.00
54872;BME280;43914;57.680;11.982;2023-12-22T07:32:12;96947.17;;;-1.56;100.00
54872;BME280;43914;57.680;11.982;2023-12-22T07:34:38;96957.31;;;-1.56;100.00
54872;BME280;43914;57.680;11.982;2023-12-22T07:37:03;96962.02;;;-1.57;100.00
54872;BME280;43914;57.680;11.982;2023-12-22T07:39:32;96969.11;;;-1.53;100.00
54872;BME280;43914;57.680;11.982;2023-12-22T07:41:57;96972.19;;;-1.53;100.00
54872;BME280;43914;57.680;11.982;2023-12-22T07:44:23;96973.81;;;-1.50;100.00
54872;BME280;43914;57.680;11.982;2023-12-22T07:46:56;96981.52;;;-1.51;100.00
54872;BME280;43914;57.680;11.982;2023-12-22T07:49:23;96987.17;;;-1.52;100.00
54872;BME280;43914;57.680;11.982;2023-12-22T07:51:50;96997.52;;;-1.50;100.00
54872;BME280;43914;57.680;11.982;2023-12-22T07:54:17;97000.11;;;-1.49;100.00
54872;BME280;43914;57.680;11.982;2023-12-22T07:56:44;97011.25;;;-1.47;100.00
54872;BME280;43914;57.680;11.982;2023-12-22T07:59:09;97020.09;;;-1.44;100.00
54872;BME280;43914;57.680;11.982;2023-12-22T08:01:35;97018.44;;;-1.44;100.00
54872;BME280;43914;57.680;11.982;2023-12-22T08:04:00;97023.48;;;-1.43;100.00
54872;BME280;43914;57.680;11.982;2023-12-22T08:06:26;97019.93;;;-1.43;100.00
54872;BME280;43914;57.680;11.982;2023-12-22T08:08:51;97024.34;;;-1.42;100.00
54872;BME280;43914;57.680;11.982;2023-12-22T08:11:17;97029.39;;;-1.39;100.00
54872;BME280;43914;57.680;11.982;2023-12-22T08:13:43;97031.42;;;-1.38;100.00
54872;BME280;43914;57.680;11.982;2023-12-22T08:16:09;97031.34;;;-1.37;100.00
54872;BME280;43914;57.680;11.982;2023-12-22T08:18:45;97032.34;;;-1.35;100.00
54872;BME280;43914;57.680;11.982;2023-12-22T08:21:13;97040.46;;;-1.32;100.00
54872;BME280;43914;57.680;11.982;2023-12-22T08:23:39;97048.49;;;-1.29;100.00
54872;BME280;43914;57.680;11.982;2023-12-22T08:26:04;97057.78;;;-1.23;100.00
54872;BME280;43914;57.680;11.982;2023-12-22T08:28:30;97063.98;;;-1.19;100.00
54872;BME280;43914;57.680;11.982;2023-12-22T08:30:55;97071.20;;;-1.16;100.00
54872;BME280;43914;57.680;11.982;2023-12-22T08:33:21;97074.70;;;-1.16;100.00
54872;BME280;43914;57.680;11.982;2023-12-22T08:35:46;97077.13;;;-1.17;100.00
54872;BME280;43914;57.680;11.982;2023-12-22T08:38:12;97083.25;;;-1.15;100.00
54872;BME280;43914;57.680;11.982;2023-12-22T08:40:38;97092.58;;;-1.15;100.00
54872;BME280;43914;57.680;11.982;2023-12-22T08:43:04;97099.50;;;-1.16;100.00
54872;BME280;43914;57.680;11.982;2023-12-22T08:45:31;97102.70;;;-1.15;100.00
54872;BME280;43914;57.680;11.982;2023-12-22T08:47:57;97105.39;;;-1.14;100.00
54872;BME280;43914;57.680;11.982;2023-12-22T08:50:23;97101.30;;;-1.13;100.00
54872;BME280;43914;57.680;11.982;2023-12-22T08:52:48;97110.42;;;-1.11;100.00
54872;BME280;43914;57.680;11.982;2023-12-22T08:55:14;97115.09;;;-1.11;100.00
54872;BME280;43914;57.680;11.982;2023-12-22T08:57:40;97121.52;;;-1.11;100.00
54872;BME280;43914;57.680;11.982;2023-12-22T09:00:09;97119.05;;;-1.09;100.00
54872;BME280;43914;57.680;11.982;2023-12-22T09:02:34;97119.80;;;-1.07;100.00
54872;BME280;43914;57.680;11.982;2023-12-22T09:05:00;97124.67;;;-1.05;100.00
54872;BME280;43914;57.680;11.982;2023-12-22T09:07:26;97133.92;;;-1.03;100.00
54872;BME280;43914;57.680;11.982;2023-12-22T09:09:51;97132.59;;;-1.01;100.00
54872;BME280;43914;57.680;11.982;2023-12-22T09:12:17;97136.97;;;-1.00;100.00
54872;BME280;43914;57.680;11.982;2023-12-22T09:14:42;97143.02;;;-0.98;100.00
54872;BME280;43914;57.680;11.982;2023-12-22T09:17:08;97140.45;;;-0.97;100.00
54872;BME280;43914;57.680;11.982;2023-12-22T09:19:33;97142.36;;;-0.94;100.00
54872;BME280;43914;57.680;11.982;2023-12-22T09:21:59;97140.95;;;-0.93;100.00
54872;BME280;43914;57.680;11.982;2023-12-22T09:24:25;97145.14;;;-0.91;100.00
54872;BME280;43914;57.680;11.982;2023-12-22T09:26:50;97146.88;;;-0.90;100.00
54872;BME280;43914;57.680;11.982;2023-12-22T09:29:17;97143.55;;;-0.87;100.00
54872;BME280;43914;57.680;11.982;2023-12-22T09:31:43;97144.45;;;-0.84;100.00
54872;BME280;43914;57.680;11.982;2023-12-22T09:34:08;97154.06;;;-0.82;100.00
54872;BME280;43914;57.680;11.982;2023-12-22T09:36:34;97155.85;;;-0.81;100.00
54872;BME280;43914;57.680;11.982;2023-12-22T09:38:59;97159.46;;;-0.80;100.00
54872;BME280;43914;57.680;11.982;2023-12-22T09:41:26;97163.08;;;-0.80;100.00
54872;BME280;43914;57.680;11.982;2023-12-22T09:43:51;97169.64;;;-0.79;100.00
54872;BME280;43914;57.680;11.982;2023-12-22T09:46:20;97167.86;;;-0.79;100.00
54872;BME280;43914;57.680;11.982;2023-12-22T09:48:49;97170.17;;;-0.78;100.00
54872;BME280;43914;57.680;11.982;2023-12-22T09:51:16;97173.92;;;-0.77;100.00
54872;BME280;43914;57.680;11.982;2023-12-22T09:53:44;97181.95;;;-0.78;100.00
54872;BME280;43914;57.680;11.982;2023-12-22T09:56:10;97179.71;;;-0.78;100.00
54872;BME280;43914;57.680;11.982;2023-12-22T09:58:42;97181.88;;;-0.77;100.00
54872;BME280;43914;57.680;11.982;2023-12-22T10:01:09;97178.66;;;-0.83;100.00
54872;BME280;43914;57.680;11.982;2023-12-22T10:03:36;97190.02;;;-0.78;100.00
54872;BME280;43914;57.680;11.982;2023-12-22T10:06:02;97197.40;;;-0.79;100.00
54872;BME280;43914;57.680;11.982;2023-12-22T10:08:29;97196.98;;;-0.81;100.00
54872;BME280;43914;57.680;11.982;2023-12-22T10:10:56;97201.72;;;-0.85;100.00
54872;BME280;43914;57.680;11.982;2023-12-22T10:13:25;97203.02;;;-0.87;100.00
54872;BME280;43914;57.680;11.982;2023-12-22T10:15:54;97204.80;;;-0.91;100.00
54872;BME280;43914;57.680;11.982;2023-12-22T10:18:21;97206.04;;;-0.94;100.00
54872;BME280;43914;57.680;11.982;2023-12-22T10:20:47;97210.67;;;-1.00;100.00
54872;BME280;43914;57.680;11.982;2023-12-22T10:23:13;97218.47;;;-1.01;100.00
54872;BME280;43914;57.680;11.982;2023-12-22T10:25:40;97210.93;;;-1.09;100.00
54872;BME280;43914;57.680;11.982;2023-12-22T10:28:10;97221.23;;;-1.00;100.00
54872;BME280;43914;57.680;11.982;2023-12-22T10:30:36;97225.85;;;-1.01;100.00
54872;BME280;43914;57.680;11.982;2023-12-22T10:33:06;97230.10;;;-1.03;100.00
54872;BME280;43914;57.680;11.982;2023-12-22T10:35:32;97224.22;;;-1.03;100.00
54872;BME280;43914;57.680;11.982;2023-12-22T10:37:58;97228.60;;;-1.04;100.00
54872;BME280;43914;57.680;11.982;2023-12-22T10:40:25;97224.45;;;-1.09;100.00
54872;BME280;43914;57.680;11.982;2023-12-22T10:42:54;97230.30;;;-1.14;100.00
54872;BME280;43914;57.680;11.982;2023-12-22T10:45:19;97234.36;;;-1.17;100.00
54872;BME280;43914;57.680;11.982;2023-12-22T10:47:45;97229.70;;;-1.20;100.00
54872;BME280;43914;57.680;11.982;2023-12-22T10:50:14;97230.59;;;-1.22;100.00
54872;BME280;43914;57.680;11.982;2023-12-22T10:52:39;97229.58;;;-1.22;100.00
54872;BME280;43914;57.680;11.982;2023-12-22T10:55:08;97234.06;;;-1.23;100.00
54872;BME280;43914;57.680;11.982;2023-12-22T10:57:35;97233.27;;;-1.22;100.00
54872;BME280;43914;57.680;11.982;2023-12-22T11:00:13;97238.37;;;-1.22;100.00
54872;BME280;43914;57.680;11.982;2023-12-22T11:02:42;97243.27;;;-1.22;100.00
54872;BME280;43914;57.680;11.982;2023-12-22T11:05:10;97239.05;;;-1.23;100.00
54872;BME280;43914;57.680;11.982;2023-12-22T11:07:37;97239.34;;;-1.23;100.00
54872;BME280;43914;57.680;11.982;2023-12-22T11:10:06;97236.49;;;-1.24;100.00
54872;BME280;43914;57.680;11.982;2023-12-22T11:12:35;97239.21;;;-1.25;100.00
54872;BME280;43914;57.680;11.982;2023-12-22T11:15:01;97242.70;;;-1.24;100.00
54872;BME280;43914;57.680;11.982;2023-12-22T11:17:28;97242.84;;;-1.25;100.00
54872;BME280;43914;57.680;11.982;2023-12-22T11:19:56;97247.09;;;-1.27;100.00
54872;BME280;43914;57.680;11.982;2023-12-22T11:22:22;97252.84;;;-1.28;100.00
54872;BME280;43914;57.680;11.982;2023-12-22T11:24:51;97257.05;;;-1.30;100.00
54872;BME280;43914;57.680;11.982;2023-12-22T11:27:20;97259.44;;;-1.30;100.00
54872;BME280;43914;57.680;11.982;2023-12-22T11:29:50;97258.63;;;-1.31;100.00
54872;BME280;43914;57.680;11.982;2023-12-22T11:32:17;97259.84;;;-1.32;100.00
54872;BME280;43914;57.680;11.982;2023-12-22T11:34:44;97265.80;;;-1.32;100.00
54872;BME280;43914;57.680;11.982;2023-12-22T11:37:11;97272.92;;;-1.32;100.00
54872;BME280;43914;57.680;11.982;2023-12-22T11:39:42;97273.42;;;-1.28;100.00
54872;BME280;43914;57.680;11.982;2023-12-22T11:42:14;97274.08;;;-1.27;100.00
54872;BME280;43914;57.680;11.982;2023-12-22T11:44:41;97274.27;;;-1.24;100.00
54872;BME280;43914;57.680;11.982;2023-12-22T11:47:08;97272.73;;;-1.22;100.00
54872;BME280;43914;57.680;11.982;2023-12-22T11:49:35;97273.69;;;-1.20;100.00
54872;BME280;43914;57.680;11.982;2023-12-22T11:52:14;97271.30;;;-1.17;100.00
54872;BME280;43914;57.680;11.982;2023-12-22T11:54:50;97273.83;;;-1.13;100.00
54872;BME280;43914;57.680;11.982;2023-12-22T12:02:53;97280.05;;;-1.04;100.00
54872;BME280;43914;57.680;11.982;2023-12-22T12:05:19;97279.91;;;-1.00;100.00
54872;BME280;43914;57.680;11.982;2023-12-22T12:07:47;97285.67;;;-0.99;100.00
54872;BME280;43914;57.680;11.982;2023-12-22T12:13:11;97282.55;;;-0.89;100.00
54872;BME280;43914;57.680;11.982;2023-12-22T12:15:41;97284.94;;;-0.88;100.00
54872;BME280;43914;57.680;11.982;2023-12-22T12:18:07;97292.36;;;-0.88;100.00
54872;BME280;43914;57.680;11.982;2023-12-22T12:20:38;97290.02;;;-0.89;100.00
54872;BME280;43914;57.680;11.982;2023-12-22T12:23:04;97292.48;;;-0.89;100.00
54872;BME280;43914;57.680;11.982;2023-12-22T12:25:32;97286.79;;;-0.94;100.00
54872;BME280;43914;57.680;11.982;2023-12-22T12:28:02;97304.49;;;-0.86;100.00
54872;BME280;43914;57.680;11.982;2023-12-22T12:30:28;97298.30;;;-0.86;100.00
54872;BME280;43914;57.680;11.982;2023-12-22T12:32:54;97293.96;;;-0.86;100.00
54872;BME280;43914;57.680;11.982;2023-12-22T12:35:20;97298.82;;;-0.86;100.00
54872;BME280;43914;57.680;11.982;2023-12-22T12:37:51;97304.66;;;-0.88;100.00
54872;BME280;43914;57.680;11.982;2023-12-22T12:40:19;97309.45;;;-0.88;100.00
54872;BME280;43914;57.680;11.982;2023-12-22T12:42:47;97303.36;;;-0.88;100.00
54872;BME280;43914;57.680;11.982;2023-12-22T12:45:12;97304.73;;;-0.88;100.00